sensor_id;sensor_type;location;lat;lon;timestamp;P1;durP1;ratioP1;P2;durP2;ratioP2
57071;SDS011;42956;51.366;11.298;2023-09-19T00:00:59;2.95;;;1.33;;
57071;SDS011;42956;51.366;11.298;2023-09-19T00:03:29;5.15;;;2.03;;
57071;SDS011;42956;51.366;11.298;2023-09-19T00:05:59;2.33;;;1.60;;
57071;SDS011;42956;51.366;11.298;2023-09-19T00:08:29;8.20;;;1.30;;
57071;SDS011;42956;51.366;11.298;2023-09-19T00:11:02;2.30;;;1.27;;
57071;SDS011;42956;51.366;11.298;2023-09-19T00:13:33;3.78;;;1.67;;
57071;SDS011;42956;51.366;11.298;2023-09-19T00:16:08;5.70;;;1.60;;
57071;SDS011;42956;51.366;11.298;2023-09-19T00:18:38;2.00;;;1.50;;
57071;SDS011;42956;51.366;11.298;2023-09-19T00:21:09;2.92;;;1.60;;
57071;SDS011;42956;51.366;11.298;2023-09-19T00:23:39;3.17;;;1.55;;
57071;SDS011;42956;51.366;11.298;2023-09-19T00:26:13;3.38;;;1.45;;
57071;SDS011;42956;51.366;11.298;2023-09-19T00:28:44;3.20;;;1.48;;
57071;SDS011;42956;51.366;11.298;2023-09-19T00:31:14;6.35;;;2.03;;
57071;SDS011;42956;51.366;11.298;2023-09-19T00:33:45;5.63;;;1.73;;
57071;SDS011;42956;51.366;11.298;2023-09-19T00:36:16;1.80;;;1.30;;
57071;SDS011;42956;51.366;11.298;2023-09-19T00:38:45;4.82;;;1.52;;
57071;SDS011;42956;51.366;11.298;2023-09-19T00:41:18;3.50;;;1.85;;
57071;SDS011;42956;51.366;11.298;2023-09-19T00:43:48;2.15;;;1.48;;
57071;SDS011;42956;51.366;11.298;2023-09-19T00:46:18;3.17;;;1.30;;
57071;SDS011;42956;51.366;11.298;2023-09-19T00:48:48;2.72;;;1.50;;
57071;SDS011;42956;51.366;11.298;2023-09-19T00:51:19;2.55;;;1.35;;
57071;SDS011;42956;51.366;11.298;2023-09-19T00:53:49;2.80;;;1.17;;
57071;SDS011;42956;51.366;11.298;2023-09-19T00:56:22;4.25;;;1.35;;
57071;SDS011;42956;51.366;11.298;2023-09-19T00:58:52;2.97;;;1.33;;
57071;SDS011;42956;51.366;11.298;2023-09-19T01:01:22;2.42;;;1.58;;
57071;SDS011;42956;51.366;11.298;2023-09-19T01:03:52;2.47;;;1.23;;
57071;SDS011;42956;51.366;11.298;2023-09-19T01:06:22;5.03;;;1.55;;
57071;SDS011;42956;51.366;11.298;2023-09-19T01:08:53;5.75;;;1.30;;
57071;SDS011;42956;51.366;11.298;2023-09-19T01:11:28;2.53;;;1.08;;
57071;SDS011;42956;51.366;11.298;2023-09-19T01:14:03;4.22;;;1.42;;
57071;SDS011;42956;51.366;11.298;2023-09-19T01:16:41;3.60;;;1.00;;
57071;SDS011;42956;51.366;11.298;2023-09-19T01:19:21;3.88;;;1.58;;
57071;SDS011;42956;51.366;11.298;2023-09-19T01:21:57;7.07;;;1.75;;
57071;SDS011;42956;51.366;11.298;2023-09-19T01:24:38;2.47;;;1.20;;
57071;SDS011;42956;51.366;11.298;2023-09-19T01:27:35;3.53;;;1.35;;
57071;SDS011;42956;51.366;11.298;2023-09-19T01:30:18;2.60;;;1.02;;
57071;SDS011;42956;51.366;11.298;2023-09-19T01:32:49;2.30;;;1.17;;
57071;SDS011;42956;51.366;11.298;2023-09-19T01:35:20;2.42;;;1.40;;
57071;SDS011;42956;51.366;11.298;2023-09-19T01:37:50;3.40;;;1.58;;
57071;SDS011;42956;51.366;11.298;2023-09-19T01:40:20;3.97;;;1.42;;
57071;SDS011;42956;51.366;11.298;2023-09-19T01:42:53;4.25;;;1.20;;
57071;SDS011;42956;51.366;11.298;2023-09-19T01:45:31;6.85;;;1.77;;
57071;SDS011;42956;51.366;11.298;2023-09-19T01:48:05;7.00;;;1.05;;
57071;SDS011;42956;51.366;11.298;2023-09-19T01:50:41;2.58;;;1.20;;
57071;SDS011;42956;51.366;11.298;2023-09-19T01:53:14;1.38;;;0.90;;
57071;SDS011;42956;51.366;11.298;2023-09-19T01:55:46;1.58;;;1.40;;
57071;SDS011;42956;51.366;11.298;2023-09-19T01:58:20;3.38;;;1.50;;
57071;SDS011;42956;51.366;11.298;2023-09-19T02:00:53;2.80;;;1.33;;
57071;SDS011;42956;51.366;11.298;2023-09-19T02:03:27;2.20;;;1.15;;
57071;SDS011;42956;51.366;11.298;2023-09-19T02:05:58;3.28;;;1.40;;
57071;SDS011;42956;51.366;11.298;2023-09-19T02:08:30;2.55;;;1.08;;
57071;SDS011;42956;51.366;11.298;2023-09-19T02:11:00;4.10;;;1.65;;
57071;SDS011;42956;51.366;11.298;2023-09-19T02:13:30;7.05;;;1.52;;
57071;SDS011;42956;51.366;11.298;2023-09-19T02:16:03;2.42;;;1.60;;
57071;SDS011;42956;51.366;11.298;2023-09-19T02:18:36;3.40;;;1.05;;
57071;SDS011;42956;51.366;11.298;2023-09-19T02:21:06;1.48;;;1.13;;
57071;SDS011;42956;51.366;11.298;2023-09-19T02:23:39;2.58;;;1.48;;
57071;SDS011;42956;51.366;11.298;2023-09-19T02:26:09;8.23;;;1.65;;
57071;SDS011;42956;51.366;11.298;2023-09-19T02:28:39;2.33;;;1.45;;
57071;SDS011;42956;51.366;11.298;2023-09-19T02:31:12;5.10;;;1.52;;
57071;SDS011;42956;51.366;11.298;2023-09-19T02:33:44;4.63;;;1.52;;
57071;SDS011;42956;51.366;11.298;2023-09-19T02:36:14;3.40;;;1.35;;
57071;SDS011;42956;51.366;11.298;2023-09-19T02:38:45;4.57;;;1.33;;
57071;SDS011;42956;51.366;11.298;2023-09-19T02:41:15;1.38;;;1.20;;
57071;SDS011;42956;51.366;11.298;2023-09-19T02:43:45;3.90;;;1.35;;
57071;SDS011;42956;51.366;11.298;2023-09-19T02:46:18;2.15;;;1.40;;
57071;SDS011;42956;51.366;11.298;2023-09-19T02:48:49;1.75;;;0.88;;
57071;SDS011;42956;51.366;11.298;2023-09-19T02:51:19;1.50;;;0.98;;
57071;SDS011;42956;51.366;11.298;2023-09-19T02:53:49;2.47;;;1.45;;
57071;SDS011;42956;51.366;11.298;2023-09-19T02:56:19;4.70;;;1.50;;
57071;SDS011;42956;51.366;11.298;2023-09-19T02:58:49;9.10;;;2.00;;
57071;SDS011;42956;51.366;11.298;2023-09-19T03:01:23;2.53;;;1.40;;
57071;SDS011;42956;51.366;11.298;2023-09-19T03:03:54;2.80;;;1.38;;
57071;SDS011;42956;51.366;11.298;2023-09-19T03:06:24;2.53;;;1.02;;
57071;SDS011;42956;51.366;11.298;2023-09-19T03:08:54;3.35;;;1.55;;
57071;SDS011;42956;51.366;11.298;2023-09-19T03:11:24;3.10;;;1.40;;
57071;SDS011;42956;51.366;11.298;2023-09-19T03:13:55;2.88;;;1.55;;
57071;SDS011;42956;51.366;11.298;2023-09-19T03:16:27;2.38;;;1.10;;
57071;SDS011;42956;51.366;11.298;2023-09-19T03:18:59;2.65;;;1.30;;
57071;SDS011;42956;51.366;11.298;2023-09-19T03:21:30;1.88;;;0.98;;
57071;SDS011;42956;51.366;11.298;2023-09-19T03:24:00;2.13;;;1.20;;
57071;SDS011;42956;51.366;11.298;2023-09-19T03:26:30;2.67;;;1.60;;
57071;SDS011;42956;51.366;11.298;2023-09-19T03:29:03;5.82;;;1.60;;
57071;SDS011;42956;51.366;11.298;2023-09-19T03:31:36;2.83;;;1.80;;
57071;SDS011;42956;51.366;11.298;2023-09-19T03:34:06;2.58;;;1.48;;
57071;SDS011;42956;51.366;11.298;2023-09-19T03:36:36;1.52;;;1.20;;
57071;SDS011;42956;51.366;11.298;2023-09-19T03:39:07;2.10;;;1.17;;
57071;SDS011;42956;51.366;11.298;2023-09-19T03:41:37;0.95;;;0.70;;
57071;SDS011;42956;51.366;11.298;2023-09-19T03:44:08;2.10;;;1.20;;
57071;SDS011;42956;51.366;11.298;2023-09-19T03:46:40;1.67;;;1.08;;
57071;SDS011;42956;51.366;11.298;2023-09-19T03:49:10;2.13;;;1.48;;
57071;SDS011;42956;51.366;11.298;2023-09-19T03:51:40;6.80;;;1.20;;
57071;SDS011;42956;51.366;11.298;2023-09-19T03:54:11;2.72;;;1.20;;
57071;SDS011;42956;51.366;11.298;2023-09-19T03:56:41;2.08;;;1.50;;
57071;SDS011;42956;51.366;11.298;2023-09-19T03:59:13;4.57;;;1.50;;
57071;SDS011;42956;51.366;11.298;2023-09-19T04:01:47;1.80;;;0.90;;
57071;SDS011;42956;51.366;11.298;2023-09-19T04:04:22;4.32;;;1.02;;
57071;SDS011;42956;51.366;11.298;2023-09-19T04:06:52;2.67;;;1.08;;
57071;SDS011;42956;51.366;11.298;2023-09-19T04:09:23;3.33;;;1.58;;
57071;SDS011;42956;51.366;11.298;2023-09-19T04:11:53;2.00;;;1.30;;
57071;SDS011;42956;51.366;11.298;2023-09-19T04:14:23;3.47;;;1.50;;
57071;SDS011;42956;51.366;11.298;2023-09-19T04:16:55;3.83;;;1.50;;
57071;SDS011;42956;51.366;11.298;2023-09-19T04:19:25;4.10;;;1.30;;
57071;SDS011;42956;51.366;11.298;2023-09-19T04:21:56;1.90;;;0.93;;
57071;SDS011;42956;51.366;11.298;2023-09-19T04:24:25;4.72;;;1.35;;
57071;SDS011;42956;51.366;11.298;2023-09-19T04:26:55;5.28;;;1.20;;
57071;SDS011;42956;51.366;11.298;2023-09-19T04:29:26;2.65;;;1.17;;
57071;SDS011;42956;51.366;11.298;2023-09-19T04:31:59;2.13;;;1.27;;
57071;SDS011;42956;51.366;11.298;2023-09-19T04:34:31;2.03;;;1.02;;
57071;SDS011;42956;51.366;11.298;2023-09-19T04:37:01;4.68;;;1.42;;
57071;SDS011;42956;51.366;11.298;2023-09-19T04:39:31;3.33;;;1.20;;
57071;SDS011;42956;51.366;11.298;2023-09-19T04:42:02;2.78;;;1.10;;
57071;SDS011;42956;51.366;11.298;2023-09-19T04:44:33;7.65;;;1.38;;
57071;SDS011;42956;51.366;11.298;2023-09-19T04:47:07;5.55;;;1.13;;
57071;SDS011;42956;51.366;11.298;2023-09-19T04:49:39;2.15;;;1.55;;
57071;SDS011;42956;51.366;11.298;2023-09-19T04:52:09;5.18;;;1.35;;
57071;SDS011;42956;51.366;11.298;2023-09-19T04:54:42;2.47;;;1.27;;
57071;SDS011;42956;51.366;11.298;2023-09-19T04:57:13;2.33;;;1.08;;
57071;SDS011;42956;51.366;11.298;2023-09-19T04:59:43;3.15;;;1.50;;
57071;SDS011;42956;51.366;11.298;2023-09-19T05:02:15;2.67;;;1.00;;
57071;SDS011;42956;51.366;11.298;2023-09-19T05:04:45;3.28;;;1.10;;
57071;SDS011;42956;51.366;11.298;2023-09-19T05:07:16;1.75;;;1.15;;
57071;SDS011;42956;51.366;11.298;2023-09-19T05:09:46;3.45;;;1.73;;
57071;SDS011;42956;51.366;11.298;2023-09-19T05:12:17;3.80;;;1.05;;
57071;SDS011;42956;51.366;11.298;2023-09-19T05:14:47;3.88;;;1.60;;
57071;SDS011;42956;51.366;11.298;2023-09-19T05:17:19;2.50;;;1.48;;
57071;SDS011;42956;51.366;11.298;2023-09-19T05:19:49;3.17;;;1.08;;
57071;SDS011;42956;51.366;11.298;2023-09-19T05:22:19;4.53;;;1.77;;
57071;SDS011;42956;51.366;11.298;2023-09-19T05:24:51;3.50;;;1.40;;
57071;SDS011;42956;51.366;11.298;2023-09-19T05:27:21;1.67;;;1.05;;
57071;SDS011;42956;51.366;11.298;2023-09-19T05:29:51;3.00;;;1.25;;
57071;SDS011;42956;51.366;11.298;2023-09-19T05:32:26;3.50;;;1.45;;
57071;SDS011;42956;51.366;11.298;2023-09-19T05:34:55;4.53;;;1.65;;
57071;SDS011;42956;51.366;11.298;2023-09-19T05:37:26;6.30;;;1.45;;
57071;SDS011;42956;51.366;11.298;2023-09-19T05:39:56;2.60;;;1.42;;
57071;SDS011;42956;51.366;11.298;2023-09-19T05:42:26;3.15;;;1.20;;
57071;SDS011;42956;51.366;11.298;2023-09-19T05:44:56;3.88;;;1.40;;
57071;SDS011;42956;51.366;11.298;2023-09-19T05:47:30;4.70;;;1.30;;
57071;SDS011;42956;51.366;11.298;2023-09-19T05:50:00;3.15;;;1.40;;
57071;SDS011;42956;51.366;11.298;2023-09-19T05:52:30;2.42;;;1.10;;
57071;SDS011;42956;51.366;11.298;2023-09-19T05:55:00;4.60;;;1.65;;
57071;SDS011;42956;51.366;11.298;2023-09-19T05:57:32;3.22;;;1.10;;
57071;SDS011;42956;51.366;11.298;2023-09-19T06:00:05;3.85;;;1.48;;
57071;SDS011;42956;51.366;11.298;2023-09-19T06:02:40;2.17;;;1.42;;
57071;SDS011;42956;51.366;11.298;2023-09-19T06:05:12;3.05;;;1.55;;
57071;SDS011;42956;51.366;11.298;2023-09-19T06:07:42;2.88;;;1.08;;
57071;SDS011;42956;51.366;11.298;2023-09-19T06:10:13;3.83;;;1.77;;
57071;SDS011;42956;51.366;11.298;2023-09-19T06:12:44;7.28;;;1.40;;
57071;SDS011;42956;51.366;11.298;2023-09-19T06:15:15;2.85;;;1.73;;
57071;SDS011;42956;51.366;11.298;2023-09-19T06:17:49;4.38;;;1.25;;
57071;SDS011;42956;51.366;11.298;2023-09-19T06:20:22;4.32;;;2.28;;
57071;SDS011;42956;51.366;11.298;2023-09-19T06:22:53;5.28;;;1.88;;
57071;SDS011;42956;51.366;11.298;2023-09-19T06:25:24;7.50;;;1.65;;
57071;SDS011;42956;51.366;11.298;2023-09-19T06:27:54;4.45;;;2.70;;
57071;SDS011;42956;51.366;11.298;2023-09-19T06:30:26;11.65;;;2.40;;
57071;SDS011;42956;51.366;11.298;2023-09-19T06:32:59;5.20;;;1.60;;
57071;SDS011;42956;51.366;11.298;2023-09-19T06:35:31;3.38;;;1.50;;
57071;SDS011;42956;51.366;11.298;2023-09-19T06:38:04;6.63;;;2.03;;
57071;SDS011;42956;51.366;11.298;2023-09-19T06:40:34;3.65;;;2.15;;
57071;SDS011;42956;51.366;11.298;2023-09-19T06:43:06;8.00;;;1.80;;
57071;SDS011;42956;51.366;11.298;2023-09-19T06:45:36;5.68;;;1.70;;
57071;SDS011;42956;51.366;11.298;2023-09-19T06:48:08;5.93;;;1.45;;
57071;SDS011;42956;51.366;11.298;2023-09-19T06:50:39;4.35;;;1.70;;
57071;SDS011;42956;51.366;11.298;2023-09-19T06:53:11;4.85;;;1.90;;
57071;SDS011;42956;51.366;11.298;2023-09-19T06:55:41;3.85;;;1.30;;
57071;SDS011;42956;51.366;11.298;2023-09-19T06:58:11;5.80;;;1.30;;
57071;SDS011;42956;51.366;11.298;2023-09-19T07:03:16;6.57;;;1.55;;
57071;SDS011;42956;51.366;11.298;2023-09-19T07:05:48;4.80;;;1.73;;
57071;SDS011;42956;51.366;11.298;2023-09-19T07:08:19;5.97;;;1.85;;
57071;SDS011;42956;51.366;11.298;2023-09-19T07:10:49;2.85;;;1.65;;
57071;SDS011;42956;51.366;11.298;2023-09-19T07:13:21;2.35;;;1.00;;
57071;SDS011;42956;51.366;11.298;2023-09-19T07:15:52;2.90;;;1.02;;
57071;SDS011;42956;51.366;11.298;2023-09-19T07:18:26;2.65;;;1.40;;
57071;SDS011;42956;51.366;11.298;2023-09-19T07:20:56;6.78;;;1.77;;
57071;SDS011;42956;51.366;11.298;2023-09-19T07:23:32;4.88;;;1.73;;
57071;SDS011;42956;51.366;11.298;2023-09-19T07:26:03;6.68;;;2.20;;
57071;SDS011;42956;51.366;11.298;2023-09-19T07:28:33;5.63;;;1.70;;
57071;SDS011;42956;51.366;11.298;2023-09-19T07:31:04;2.90;;;1.60;;
57071;SDS011;42956;51.366;11.298;2023-09-19T07:36:12;6.15;;;1.60;;
57071;SDS011;42956;51.366;11.298;2023-09-19T07:38:43;7.22;;;1.85;;
57071;SDS011;42956;51.366;11.298;2023-09-19T07:41:14;6.25;;;1.67;;
57071;SDS011;42956;51.366;11.298;2023-09-19T07:43:44;4.05;;;1.15;;
57071;SDS011;42956;51.366;11.298;2023-09-19T07:46:14;2.80;;;1.52;;
57071;SDS011;42956;51.366;11.298;2023-09-19T07:48:52;6.07;;;1.25;;
57071;SDS011;42956;51.366;11.298;2023-09-19T07:51:24;4.43;;;1.80;;
57071;SDS011;42956;51.366;11.298;2023-09-19T07:53:54;3.95;;;2.30;;
57071;SDS011;42956;51.366;11.298;2023-09-19T07:56:27;3.33;;;1.50;;
57071;SDS011;42956;51.366;11.298;2023-09-19T07:59:01;5.68;;;1.25;;
57071;SDS011;42956;51.366;11.298;2023-09-19T08:01:31;3.45;;;1.25;;
57071;SDS011;42956;51.366;11.298;2023-09-19T08:04:03;4.53;;;1.40;;
57071;SDS011;42956;51.366;11.298;2023-09-19T08:06:35;11.90;;;2.38;;
57071;SDS011;42956;51.366;11.298;2023-09-19T08:11:38;3.28;;;1.52;;
57071;SDS011;42956;51.366;11.298;2023-09-19T08:14:08;2.47;;;1.50;;
57071;SDS011;42956;51.366;11.298;2023-09-19T08:16:41;9.52;;;1.77;;
57071;SDS011;42956;51.366;11.298;2023-09-19T08:19:12;7.93;;;2.25;;
57071;SDS011;42956;51.366;11.298;2023-09-19T08:21:45;4.68;;;1.95;;
57071;SDS011;42956;51.366;11.298;2023-09-19T08:24:17;10.05;;;2.20;;
57071;SDS011;42956;51.366;11.298;2023-09-19T08:26:47;7.03;;;2.95;;
57071;SDS011;42956;51.366;11.298;2023-09-19T08:29:18;4.97;;;1.77;;
57071;SDS011;42956;51.366;11.298;2023-09-19T08:31:48;8.60;;;2.90;;
57071;SDS011;42956;51.366;11.298;2023-09-19T08:34:20;8.45;;;2.40;;
57071;SDS011;42956;51.366;11.298;2023-09-19T08:36:54;4.13;;;1.92;;
57071;SDS011;42956;51.366;11.298;2023-09-19T08:39:24;10.30;;;3.00;;
57071;SDS011;42956;51.366;11.298;2023-09-19T08:41:56;5.07;;;2.55;;
57071;SDS011;42956;51.366;11.298;2023-09-19T08:44:27;5.45;;;1.92;;
57071;SDS011;42956;51.366;11.298;2023-09-19T08:46:59;5.63;;;3.05;;
57071;SDS011;42956;51.366;11.298;2023-09-19T08:49:33;8.18;;;2.20;;
57071;SDS011;42956;51.366;11.298;2023-09-19T08:52:10;7.22;;;2.72;;
57071;SDS011;42956;51.366;11.298;2023-09-19T08:54:42;4.57;;;1.90;;
57071;SDS011;42956;51.366;11.298;2023-09-19T08:57:14;12.60;;;2.50;;
57071;SDS011;42956;51.366;11.298;2023-09-19T08:59:49;6.90;;;2.45;;
57071;SDS011;42956;51.366;11.298;2023-09-19T09:02:19;9.45;;;2.70;;
57071;SDS011;42956;51.366;11.298;2023-09-19T09:04:50;4.75;;;1.77;;
57071;SDS011;42956;51.366;11.298;2023-09-19T09:07:23;7.30;;;2.53;;
57071;SDS011;42956;51.366;11.298;2023-09-19T09:09:55;3.75;;;1.90;;
57071;SDS011;42956;51.366;11.298;2023-09-19T09:12:25;6.90;;;2.00;;
57071;SDS011;42956;51.366;11.298;2023-09-19T09:14:55;5.82;;;2.60;;
57071;SDS011;42956;51.366;11.298;2023-09-19T09:17:25;7.25;;;2.53;;
57071;SDS011;42956;51.366;11.298;2023-09-19T09:19:56;6.47;;;2.08;;
57071;SDS011;42956;51.366;11.298;2023-09-19T09:22:29;3.80;;;1.90;;
57071;SDS011;42956;51.366;11.298;2023-09-19T09:25:00;6.75;;;2.38;;
57071;SDS011;42956;51.366;11.298;2023-09-19T09:27:31;5.90;;;2.20;;
57071;SDS011;42956;51.366;11.298;2023-09-19T09:30:01;5.63;;;2.25;;
57071;SDS011;42956;51.366;11.298;2023-09-19T09:32:31;9.00;;;2.47;;
57071;SDS011;42956;51.366;11.298;2023-09-19T09:35:11;4.68;;;1.83;;
57071;SDS011;42956;51.366;11.298;2023-09-19T09:37:49;6.25;;;2.50;;
57071;SDS011;42956;51.366;11.298;2023-09-19T09:40:45;4.20;;;2.20;;
57071;SDS011;42956;51.366;11.298;2023-09-19T09:45:46;5.22;;;1.95;;
57071;SDS011;42956;51.366;11.298;2023-09-19T09:48:23;7.53;;;1.95;;
57071;SDS011;42956;51.366;11.298;2023-09-19T09:50:58;4.45;;;1.60;;
57071;SDS011;42956;51.366;11.298;2023-09-19T09:53:33;4.85;;;2.13;;
57071;SDS011;42956;51.366;11.298;2023-09-19T09:56:05;5.80;;;1.77;;
57071;SDS011;42956;51.366;11.298;2023-09-19T09:58:37;6.78;;;2.10;;
57071;SDS011;42956;51.366;11.298;2023-09-19T10:01:10;9.18;;;1.88;;
57071;SDS011;42956;51.366;11.298;2023-09-19T10:03:42;4.15;;;1.65;;
57071;SDS011;42956;51.366;11.298;2023-09-19T10:06:15;11.35;;;1.77;;
57071;SDS011;42956;51.366;11.298;2023-09-19T10:09:01;9.98;;;2.35;;
57071;SDS011;42956;51.366;11.298;2023-09-19T10:11:40;7.05;;;2.35;;
57071;SDS011;42956;51.366;11.298;2023-09-19T10:14:11;6.75;;;2.55;;
57071;SDS011;42956;51.366;11.298;2023-09-19T10:16:45;9.82;;;2.17;;
57071;SDS011;42956;51.366;11.298;2023-09-19T10:19:16;7.47;;;1.90;;
57071;SDS011;42956;51.366;11.298;2023-09-19T10:21:53;4.90;;;2.15;;
57071;SDS011;42956;51.366;11.298;2023-09-19T10:24:27;5.78;;;2.17;;
57071;SDS011;42956;51.366;11.298;2023-09-19T10:26:59;6.97;;;2.13;;
57071;SDS011;42956;51.366;11.298;2023-09-19T10:29:32;11.52;;;3.20;;
57071;SDS011;42956;51.366;11.298;2023-09-19T10:32:03;8.90;;;2.25;;
57071;SDS011;42956;51.366;11.298;2023-09-19T10:34:36;3.67;;;1.98;;
57071;SDS011;42956;51.366;11.298;2023-09-19T10:37:08;11.93;;;2.38;;
57071;SDS011;42956;51.366;11.298;2023-09-19T10:39:45;9.38;;;2.17;;
57071;SDS011;42956;51.366;11.298;2023-09-19T10:45:38;8.93;;;2.83;;
57071;SDS011;42956;51.366;11.298;2023-09-19T10:48:10;4.15;;;2.33;;
57071;SDS011;42956;51.366;11.298;2023-09-19T10:50:43;7.93;;;2.92;;
57071;SDS011;42956;51.366;11.298;2023-09-19T10:53:15;9.23;;;2.78;;
57071;SDS011;42956;51.366;11.298;2023-09-19T10:55:52;8.52;;;2.47;;
57071;SDS011;42956;51.366;11.298;2023-09-19T10:58:25;9.18;;;2.85;;
57071;SDS011;42956;51.366;11.298;2023-09-19T11:00:56;4.20;;;1.88;;
57071;SDS011;42956;51.366;11.298;2023-09-19T11:03:29;4.65;;;2.08;;
57071;SDS011;42956;51.366;11.298;2023-09-19T11:06:10;29.08;;;2.60;;
57071;SDS011;42956;51.366;11.298;2023-09-19T11:08:57;7.10;;;2.40;;
57071;SDS011;42956;51.366;11.298;2023-09-19T11:11:47;5.65;;;1.75;;
57071;SDS011;42956;51.366;11.298;2023-09-19T11:14:29;5.18;;;2.22;;
57071;SDS011;42956;51.366;11.298;2023-09-19T11:25:42;5.38;;;1.58;;
57071;SDS011;42956;51.366;11.298;2023-09-19T11:28:29;5.85;;;1.58;;
57071;SDS011;42956;51.366;11.298;2023-09-19T11:31:00;5.70;;;1.67;;
57071;SDS011;42956;51.366;11.298;2023-09-19T11:33:53;5.38;;;2.42;;
57071;SDS011;42956;51.366;11.298;2023-09-19T11:36:43;6.33;;;2.10;;
57071;SDS011;42956;51.366;11.298;2023-09-19T11:39:24;5.63;;;2.20;;
57071;SDS011;42956;51.366;11.298;2023-09-19T11:41:56;7.85;;;2.83;;
57071;SDS011;42956;51.366;11.298;2023-09-19T11:44:34;5.55;;;2.40;;
57071;SDS011;42956;51.366;11.298;2023-09-19T11:47:05;9.68;;;2.20;;
57071;SDS011;42956;51.366;11.298;2023-09-19T11:49:40;8.25;;;2.33;;
57071;SDS011;42956;51.366;11.298;2023-09-19T11:52:10;6.70;;;1.98;;
57071;SDS011;42956;51.366;11.298;2023-09-19T11:54:41;2.97;;;1.90;;
57071;SDS011;42956;51.366;11.298;2023-09-19T11:57:14;8.43;;;2.38;;
57071;SDS011;42956;51.366;11.298;2023-09-19T11:59:50;5.82;;;2.42;;
57071;SDS011;42956;51.366;11.298;2023-09-19T12:02:27;6.10;;;3.13;;
57071;SDS011;42956;51.366;11.298;2023-09-19T12:05:04;6.90;;;2.63;;
57071;SDS011;42956;51.366;11.298;2023-09-19T12:07:42;5.72;;;2.33;;
57071;SDS011;42956;51.366;11.298;2023-09-19T12:10:12;5.47;;;2.50;;
57071;SDS011;42956;51.366;11.298;2023-09-19T12:12:46;8.18;;;2.58;;
57071;SDS011;42956;51.366;11.298;2023-09-19T12:15:22;8.13;;;3.13;;
57071;SDS011;42956;51.366;11.298;2023-09-19T12:17:55;5.45;;;2.20;;
57071;SDS011;42956;51.366;11.298;2023-09-19T12:23:21;5.60;;;2.22;;
57071;SDS011;42956;51.366;11.298;2023-09-19T12:25:52;5.85;;;2.25;;
57071;SDS011;42956;51.366;11.298;2023-09-19T12:28:27;3.05;;;2.28;;
57071;SDS011;42956;51.366;11.298;2023-09-19T12:31:06;8.00;;;2.50;;
57071;SDS011;42956;51.366;11.298;2023-09-19T12:33:36;5.43;;;2.65;;
57071;SDS011;42956;51.366;11.298;2023-09-19T12:36:19;5.03;;;2.75;;
57071;SDS011;42956;51.366;11.298;2023-09-19T12:38:55;9.68;;;2.35;;
57071;SDS011;42956;51.366;11.298;2023-09-19T12:41:26;5.32;;;2.60;;
57071;SDS011;42956;51.366;11.298;2023-09-19T12:43:56;7.20;;;3.10;;
57071;SDS011;42956;51.366;11.298;2023-09-19T12:46:27;5.97;;;2.72;;
57071;SDS011;42956;51.366;11.298;2023-09-19T12:51:45;8.93;;;2.92;;
57071;SDS011;42956;51.366;11.298;2023-09-19T12:54:17;6.68;;;2.97;;
57071;SDS011;42956;51.366;11.298;2023-09-19T12:56:49;8.45;;;2.90;;
57071;SDS011;42956;51.366;11.298;2023-09-19T12:59:28;14.13;;;2.70;;
57071;SDS011;42956;51.366;11.298;2023-09-19T13:02:05;5.38;;;2.45;;
57071;SDS011;42956;51.366;11.298;2023-09-19T13:04:51;7.32;;;2.92;;
57071;SDS011;42956;51.366;11.298;2023-09-19T13:10:12;10.23;;;3.00;;
57071;SDS011;42956;51.366;11.298;2023-09-19T13:12:47;7.38;;;2.50;;
57071;SDS011;42956;51.366;11.298;2023-09-19T13:15:17;7.18;;;2.72;;
57071;SDS011;42956;51.366;11.298;2023-09-19T13:17:51;5.25;;;2.78;;
57071;SDS011;42956;51.366;11.298;2023-09-19T13:20:22;5.32;;;2.58;;
57071;SDS011;42956;51.366;11.298;2023-09-19T13:22:54;13.95;;;2.83;;
57071;SDS011;42956;51.366;11.298;2023-09-19T13:25:29;8.20;;;2.67;;
57071;SDS011;42956;51.366;11.298;2023-09-19T13:28:00;5.93;;;2.55;;
57071;SDS011;42956;51.366;11.298;2023-09-19T13:30:31;5.45;;;2.50;;
57071;SDS011;42956;51.366;11.298;2023-09-19T13:33:04;7.43;;;2.90;;
57071;SDS011;42956;51.366;11.298;2023-09-19T13:35:38;9.82;;;2.78;;
57071;SDS011;42956;51.366;11.298;2023-09-19T13:38:08;4.57;;;2.63;;
57071;SDS011;42956;51.366;11.298;2023-09-19T13:40:42;4.80;;;2.60;;
57071;SDS011;42956;51.366;11.298;2023-09-19T13:43:12;10.57;;;3.25;;
57071;SDS011;42956;51.366;11.298;2023-09-19T13:45:43;4.40;;;2.47;;
57071;SDS011;42956;51.366;11.298;2023-09-19T13:48:13;8.93;;;2.40;;
57071;SDS011;42956;51.366;11.298;2023-09-19T13:50:46;4.15;;;1.90;;
57071;SDS011;42956;51.366;11.298;2023-09-19T13:53:16;8.38;;;2.88;;
57071;SDS011;42956;51.366;11.298;2023-09-19T13:55:49;8.27;;;2.67;;
57071;SDS011;42956;51.366;11.298;2023-09-19T13:58:18;6.93;;;2.30;;
57071;SDS011;42956;51.366;11.298;2023-09-19T14:00:48;6.25;;;2.50;;
57071;SDS011;42956;51.366;11.298;2023-09-19T14:03:22;8.30;;;2.88;;
57071;SDS011;42956;51.366;11.298;2023-09-19T14:05:55;5.65;;;2.80;;
57071;SDS011;42956;51.366;11.298;2023-09-19T14:08:25;5.30;;;2.45;;
57071;SDS011;42956;51.366;11.298;2023-09-19T14:10:58;8.00;;;2.80;;
57071;SDS011;42956;51.366;11.298;2023-09-19T14:13:28;8.50;;;2.40;;
57071;SDS011;42956;51.366;11.298;2023-09-19T14:16:02;8.50;;;3.28;;
57071;SDS011;42956;51.366;11.298;2023-09-19T14:18:31;8.50;;;2.67;;
57071;SDS011;42956;51.366;11.298;2023-09-19T14:21:02;10.13;;;2.92;;
57071;SDS011;42956;51.366;11.298;2023-09-19T14:23:34;11.70;;;3.25;;
57071;SDS011;42956;51.366;11.298;2023-09-19T14:26:07;4.35;;;2.42;;
57071;SDS011;42956;51.366;11.298;2023-09-19T14:28:37;7.63;;;2.65;;
57071;SDS011;42956;51.366;11.298;2023-09-19T14:31:08;4.15;;;2.47;;
57071;SDS011;42956;51.366;11.298;2023-09-19T14:33:38;8.10;;;2.20;;
57071;SDS011;42956;51.366;11.298;2023-09-19T14:36:08;5.72;;;2.63;;
57071;SDS011;42956;51.366;11.298;2023-09-19T14:38:40;5.07;;;2.45;;
57071;SDS011;42956;51.366;11.298;2023-09-19T14:41:14;6.97;;;2.45;;
57071;SDS011;42956;51.366;11.298;2023-09-19T14:43:44;9.98;;;2.72;;
57071;SDS011;42956;51.366;11.298;2023-09-19T14:46:14;7.75;;;2.55;;
57071;SDS011;42956;51.366;11.298;2023-09-19T14:48:45;5.50;;;2.47;;
57071;SDS011;42956;51.366;11.298;2023-09-19T14:51:16;5.85;;;2.67;;
57071;SDS011;42956;51.366;11.298;2023-09-19T14:53:46;6.22;;;3.13;;
57071;SDS011;42956;51.366;11.298;2023-09-19T14:56:18;6.43;;;2.67;;
57071;SDS011;42956;51.366;11.298;2023-09-19T14:58:50;7.78;;;2.75;;
57071;SDS011;42956;51.366;11.298;2023-09-19T15:01:20;10.68;;;2.95;;
57071;SDS011;42956;51.366;11.298;2023-09-19T15:03:51;7.00;;;2.63;;
57071;SDS011;42956;51.366;11.298;2023-09-19T15:06:22;7.45;;;2.85;;
57071;SDS011;42956;51.366;11.298;2023-09-19T15:08:58;4.15;;;2.35;;
57071;SDS011;42956;51.366;11.298;2023-09-19T15:11:34;5.40;;;2.53;;
57071;SDS011;42956;51.366;11.298;2023-09-19T15:16:34;6.72;;;2.78;;
57071;SDS011;42956;51.366;11.298;2023-09-19T15:19:05;6.70;;;2.70;;
57071;SDS011;42956;51.366;11.298;2023-09-19T15:24:39;15.00;;;3.10;;
57071;SDS011;42956;51.366;11.298;2023-09-19T15:27:12;7.75;;;2.88;;
57071;SDS011;42956;51.366;11.298;2023-09-19T15:29:44;6.13;;;2.80;;
57071;SDS011;42956;51.366;11.298;2023-09-19T15:32:14;11.90;;;2.65;;
57071;SDS011;42956;51.366;11.298;2023-09-19T15:34:44;8.95;;;2.60;;
57071;SDS011;42956;51.366;11.298;2023-09-19T15:39:47;5.43;;;2.33;;
57071;SDS011;42956;51.366;11.298;2023-09-19T15:42:24;6.43;;;3.00;;